createdAt,value
2023-05-18T00:02:22.934Z,3.91
2023-05-18T00:05:03.206Z,5.66
2023-05-18T00:07:42.874Z,9.25
2023-05-18T00:10:23.226Z,6.68
2023-05-18T00:13:02.736Z,6.90
2023-05-18T00:15:42.315Z,5.72
2023-05-18T00:18:28.679Z,5.59
2023-05-18T00:21:07.996Z,5.72
2023-05-18T00:23:50.737Z,4.50
2023-05-18T00:26:30.055Z,4.57
2023-05-18T00:29:09.368Z,5.23
2023-05-18T00:31:49.076Z,5.70
2023-05-18T00:34:33.480Z,5.18
2023-05-18T00:37:12.983Z,4.31
2023-05-18T00:39:52.318Z,4.83
2023-05-18T00:42:31.715Z,5.26
2023-05-18T00:45:11.803Z,5.15
2023-05-18T00:47:51.157Z,4.68
2023-05-18T00:50:35.870Z,4.23
2023-05-18T00:53:17.066Z,4.21
2023-05-18T00:55:56.405Z,4.17
2023-05-18T00:58:35.979Z,3.86
2023-05-18T01:01:18.914Z,3.92
2023-05-18T01:03:58.243Z,4.14
2023-05-18T01:06:43.067Z,5.07
2023-05-18T01:09:22.941Z,4.52
2023-05-18T01:12:10.974Z,4.12
2023-05-18T01:14:59.844Z,3.89
2023-05-18T01:17:51.442Z,4.05
2023-05-18T01:20:40.132Z,3.95
2023-05-18T01:23:53.503Z,3.93
2023-05-18T01:26:42.066Z,3.78
2023-05-18T01:29:25.158Z,3.91
2023-05-18T01:32:04.905Z,3.87
2023-05-18T01:34:44.272Z,4.17
2023-05-18T01:37:23.592Z,4.26
2023-05-18T01:40:02.991Z,4.12
2023-05-18T01:42:55.602Z,4.03
2023-05-18T01:45:38.391Z,4.23
2023-05-18T01:48:22.898Z,3.90
2023-05-18T01:51:05.802Z,3.99
2023-05-18T01:53:51.055Z,4.30
2023-05-18T01:56:32.367Z,4.05
2023-05-18T01:59:18.337Z,4.15
2023-05-18T02:01:59.422Z,4.11
2023-05-18T02:04:39.328Z,4.16
2023-05-18T02:07:18.693Z,3.98
2023-05-18T02:09:58.056Z,4.17
2023-05-18T02:12:37.536Z,3.72
2023-05-18T02:15:22.621Z,3.83
2023-05-18T02:18:02.779Z,3.87
2023-05-18T02:20:44.223Z,4.04
2023-05-18T02:23:23.528Z,3.95
2023-05-18T02:26:04.565Z,4.07
2023-05-18T02:28:43.848Z,4.06
2023-05-18T02:31:30.750Z,4.04
2023-05-18T02:34:10.303Z,4.00
2023-05-18T02:36:50.020Z,3.94
2023-05-18T02:39:29.287Z,3.98
2023-05-18T02:42:08.561Z,3.78
2023-05-18T02:44:48.492Z,3.91
2023-05-18T02:47:32.970Z,3.85
2023-05-18T02:50:13.211Z,3.93
2023-05-18T02:52:52.500Z,3.91
2023-05-18T02:55:31.975Z,4.23
2023-05-18T02:58:11.713Z,4.23
2023-05-18T03:00:51.071Z,4.28
2023-05-18T03:03:35.711Z,4.19
2023-05-18T03:06:15.435Z,3.87
2023-05-18T03:08:55.555Z,3.98
2023-05-18T03:11:34.842Z,4.12
2023-05-18T03:14:14.178Z,3.99
2023-05-18T03:16:54.947Z,4.16
2023-05-18T03:19:39.311Z,3.83
2023-05-18T03:22:18.736Z,3.77
2023-05-18T03:24:58.120Z,3.87
2023-05-18T03:27:39.028Z,4.02
2023-05-18T03:30:18.829Z,3.80
2023-05-18T03:32:58.227Z,3.89
2023-05-18T03:35:42.633Z,4.12
2023-05-18T03:38:22.018Z,4.20
2023-05-18T03:41:01.455Z,4.42
2023-05-18T03:43:40.783Z,3.95
2023-05-18T03:46:20.162Z,4.26
2023-05-18T03:49:00.245Z,4.04
2023-05-18T03:51:44.570Z,4.23
2023-05-18T03:54:23.827Z,4.17
2023-05-18T03:57:03.135Z,4.12
2023-05-18T03:59:42.451Z,4.22
2023-05-18T04:05:06.785Z,4.03
2023-05-18T04:07:51.211Z,4.08
2023-05-18T04:10:31.224Z,3.90
2023-05-18T04:13:10.580Z,3.98
2023-05-18T04:15:50.022Z,4.04
2023-05-18T04:18:31.459Z,4.23
2023-05-18T04:21:10.946Z,4.13
2023-05-18T04:23:55.345Z,4.34
2023-05-18T04:26:34.680Z,4.23
2023-05-18T04:29:14.699Z,4.23
2023-05-18T04:31:54.918Z,4.14
2023-05-18T04:34:35.565Z,4.01
2023-05-18T04:37:14.876Z,4.23
2023-05-18T04:39:59.990Z,4.28
2023-05-18T04:42:39.871Z,4.58
2023-05-18T04:45:22.224Z,4.21
2023-05-18T04:48:03.154Z,4.15
2023-05-18T04:50:43.249Z,4.19
2023-05-18T04:53:22.893Z,4.11
2023-05-18T04:56:07.673Z,4.07
2023-05-18T04:58:49.257Z,4.18
2023-05-18T05:01:28.579Z,4.00
2023-05-18T05:04:07.991Z,4.34
2023-05-18T05:06:47.557Z,4.12
2023-05-18T05:09:26.892Z,4.60
2023-05-18T05:12:11.805Z,4.78
2023-05-18T05:14:51.065Z,4.24
2023-05-18T05:17:30.528Z,4.13
2023-05-18T05:20:10.059Z,4.33
2023-05-18T05:22:49.494Z,4.49
2023-05-18T05:25:29.416Z,4.71
2023-05-18T05:28:13.875Z,4.39
2023-05-18T05:30:53.135Z,4.80
2023-05-18T05:33:32.587Z,4.52
2023-05-18T05:36:12.196Z,4.51
2023-05-18T05:38:51.503Z,4.53
2023-05-18T05:41:32.448Z,4.12
2023-05-18T05:44:17.012Z,4.62
2023-05-18T05:46:56.357Z,5.17
2023-05-18T05:49:35.849Z,7.56
2023-05-18T05:52:15.819Z,6.29
2023-05-18T05:54:55.366Z,5.17
2023-05-18T05:57:34.650Z,4.25
2023-05-18T06:00:20.804Z,4.34
2023-05-18T06:03:00.756Z,4.08
2023-05-18T06:05:40.124Z,4.05
2023-05-18T06:08:19.442Z,4.27
2023-05-18T06:10:58.963Z,4.81
2023-05-18T06:13:38.483Z,7.19
2023-05-18T06:16:22.963Z,5.53
2023-05-18T06:19:02.325Z,4.28
2023-05-18T06:21:41.779Z,3.87
2023-05-18T06:24:21.052Z,4.17
2023-05-18T06:27:00.856Z,4.13
2023-05-18T06:29:40.193Z,4.16
2023-05-18T06:32:25.199Z,4.03
2023-05-18T06:35:05.106Z,4.04
2023-05-18T06:37:46.789Z,3.84
2023-05-18T06:40:26.438Z,4.12
2023-05-18T06:43:05.753Z,3.84
2023-05-18T06:45:45.339Z,4.13
2023-05-18T06:48:31.671Z,3.79
2023-05-18T06:51:11.278Z,3.59
2023-05-18T06:53:51.552Z,5.02
2023-05-18T06:56:30.901Z,5.27
2023-05-18T06:59:10.210Z,3.82
2023-05-18T07:01:49.644Z,3.61
2023-05-18T07:04:34.213Z,3.79
2023-05-18T07:07:13.466Z,3.56
2023-05-18T07:09:53.715Z,3.87
2023-05-18T07:12:33.251Z,3.82
2023-05-18T07:15:14.239Z,3.56
2023-05-18T07:17:53.663Z,4.13
2023-05-18T07:20:38.143Z,3.73
2023-05-18T07:23:17.560Z,3.76
2023-05-18T07:25:56.891Z,3.57
2023-05-18T07:28:36.317Z,4.01
2023-05-18T07:31:17.502Z,3.68
2023-05-18T07:33:56.853Z,3.70
2023-05-18T07:36:41.218Z,3.82
2023-05-18T07:39:21.444Z,3.85
2023-05-18T07:42:00.741Z,4.04
2023-05-18T07:44:40.024Z,3.79
2023-05-18T07:47:21.575Z,3.68
2023-05-18T07:50:00.904Z,3.59
2023-05-18T07:52:45.281Z,3.78
2023-05-18T07:55:24.900Z,3.64
2023-05-18T07:58:06.053Z,3.52
2023-05-18T08:00:45.582Z,3.67
2023-05-18T08:03:25.525Z,3.57
2023-05-18T08:06:04.999Z,3.97
2023-05-18T08:08:49.407Z,3.83
2023-05-18T08:11:28.734Z,3.72
2023-05-18T08:14:08.052Z,3.62
2023-05-18T08:16:47.432Z,3.83
2023-05-18T08:19:26.839Z,3.50
2023-05-18T08:22:06.198Z,3.94
2023-05-18T08:24:50.590Z,3.83
2023-05-18T08:27:29.922Z,3.70
2023-05-18T08:30:09.937Z,3.44
2023-05-18T08:32:49.451Z,3.41
2023-05-18T08:35:28.908Z,3.59
2023-05-18T08:38:08.325Z,3.69
2023-05-18T08:41:02.807Z,3.51
2023-05-18T08:43:49.262Z,3.70
2023-05-18T08:46:31.452Z,3.36
2023-05-18T08:49:13.056Z,3.08
2023-05-18T08:51:54.394Z,3.46
2023-05-18T08:54:34.178Z,3.39
2023-05-18T08:57:20.690Z,3.47
2023-05-18T09:00:03.892Z,3.59
2023-05-18T09:02:45.484Z,3.59
2023-05-18T09:05:27.468Z,3.38
2023-05-18T09:08:07.131Z,3.27
2023-05-18T09:10:47.012Z,3.43
2023-05-18T09:13:31.603Z,3.39
2023-05-18T09:16:11.149Z,3.15
2023-05-18T09:18:50.738Z,3.42
2023-05-18T09:21:30.312Z,3.34
2023-05-18T09:24:09.706Z,3.49
2023-05-18T09:26:49.774Z,3.74
2023-05-18T09:29:34.232Z,3.56
2023-05-18T09:32:18.115Z,3.24
2023-05-18T09:34:58.085Z,3.22
2023-05-18T09:37:38.643Z,3.57
2023-05-18T09:40:20.784Z,3.45
2023-05-18T09:43:00.156Z,3.29
2023-05-18T09:45:52.336Z,3.54
2023-05-18T09:48:35.299Z,3.40
2023-05-18T09:51:17.534Z,3.57
2023-05-18T09:54:02.128Z,3.41
2023-05-18T09:56:44.643Z,3.57
2023-05-18T09:59:24.035Z,3.67
2023-05-18T10:02:14.259Z,3.52
2023-05-18T10:04:53.725Z,3.34
2023-05-18T10:07:34.181Z,3.26
2023-05-18T10:10:15.010Z,3.26
2023-05-18T10:12:55.106Z,3.14
2023-05-18T10:15:34.503Z,3.27
2023-05-18T10:18:19.283Z,3.51
2023-05-18T10:21:02.756Z,3.36
2023-05-18T10:23:43.679Z,3.41
2023-05-18T10:26:29.857Z,3.24
2023-05-18T10:29:09.925Z,3.26
2023-05-18T10:31:50.903Z,3.30
2023-05-18T10:34:35.425Z,3.64
2023-05-18T10:37:15.311Z,3.53
2023-05-18T10:39:58.568Z,3.30
2023-05-18T10:42:38.627Z,3.42
2023-05-18T10:45:18.422Z,3.39
2023-05-18T10:48:00.549Z,3.22
2023-05-18T10:50:48.120Z,3.61
2023-05-18T10:53:30.630Z,3.25
2023-05-18T10:56:10.216Z,3.89
2023-05-18T10:58:52.303Z,3.82
2023-05-18T11:01:32.817Z,3.42
2023-05-18T11:04:12.837Z,3.16
2023-05-18T11:07:03.354Z,3.24
2023-05-18T11:09:42.732Z,3.18
2023-05-18T11:12:24.263Z,3.08
2023-05-18T11:15:03.986Z,3.02
2023-05-18T11:17:43.379Z,3.11
2023-05-18T11:20:24.776Z,3.17
2023-05-18T11:23:15.839Z,3.19
2023-05-18T11:25:56.720Z,3.03
2023-05-18T11:28:36.559Z,3.20
2023-05-18T11:31:15.950Z,3.23
2023-05-18T11:33:55.883Z,3.27
2023-05-18T11:36:35.612Z,2.91
2023-05-18T11:39:31.317Z,3.08
2023-05-18T11:42:15.729Z,3.14
2023-05-18T11:45:00.425Z,3.14
2023-05-18T11:47:41.941Z,2.95
2023-05-18T11:50:21.560Z,3.14
2023-05-18T11:53:01.509Z,3.03
2023-05-18T11:55:50.262Z,3.26
2023-05-18T11:58:32.171Z,3.36
2023-05-18T12:01:13.724Z,3.14
2023-05-18T12:03:53.483Z,3.06
2023-05-18T12:06:35.616Z,3.22
2023-05-18T12:09:15.234Z,3.06
2023-05-18T12:11:59.908Z,3.03
2023-05-18T12:14:42.574Z,3.40
2023-05-18T12:17:21.915Z,3.11
2023-05-18T12:20:01.219Z,2.99
2023-05-18T12:22:40.533Z,2.89
2023-05-18T12:25:20.830Z,3.07
2023-05-18T12:28:06.050Z,2.94
2023-05-18T12:30:45.424Z,3.13
2023-05-18T12:33:24.843Z,3.43
2023-05-18T12:36:04.891Z,2.87
2023-05-18T12:38:44.201Z,2.99
2023-05-18T12:41:30.125Z,2.95
2023-05-18T12:44:16.593Z,3.15
2023-05-18T12:46:56.090Z,3.24
2023-05-18T12:49:35.675Z,2.99
2023-05-18T12:52:19.613Z,2.84
2023-05-18T12:55:02.040Z,3.20
2023-05-18T12:57:45.166Z,3.12
2023-05-18T13:00:30.673Z,2.53
2023-05-18T13:03:16.273Z,3.38
2023-05-18T13:06:10.748Z,3.33
2023-05-18T13:08:50.149Z,3.01
2023-05-18T13:11:32.917Z,2.72
2023-05-18T13:14:13.936Z,3.39
2023-05-18T13:17:00.984Z,2.98
2023-05-18T13:19:43.016Z,3.23
2023-05-18T13:22:23.197Z,3.05
2023-05-18T13:25:02.505Z,3.10
2023-05-18T13:27:41.892Z,3.33
2023-05-18T13:30:21.417Z,3.33
2023-05-18T13:33:07.061Z,3.45
2023-05-18T13:35:50.859Z,3.32
2023-05-18T13:38:30.156Z,3.03
2023-05-18T13:41:09.446Z,3.06
2023-05-18T13:43:49.014Z,3.29
2023-05-18T13:46:28.435Z,3.22
2023-05-18T13:49:13.979Z,2.79
2023-05-18T13:51:53.397Z,2.95
2023-05-18T13:54:32.812Z,3.02
2023-05-18T13:57:12.923Z,3.18
2023-05-18T13:59:52.313Z,3.05
2023-05-18T14:02:31.882Z,3.44
2023-05-18T14:05:17.554Z,2.82
2023-05-18T14:07:57.945Z,3.34
2023-05-18T14:10:37.401Z,3.19
2023-05-18T14:13:17.373Z,2.99
2023-05-18T14:15:56.777Z,2.94
2023-05-18T14:18:36.113Z,2.99
2023-05-18T14:21:20.592Z,2.88
2023-05-18T14:24:04.824Z,2.87
2023-05-18T14:26:44.236Z,2.94
2023-05-18T14:29:23.559Z,3.18
2023-05-18T14:32:02.870Z,2.92
2023-05-18T14:34:42.392Z,3.11
2023-05-18T14:37:26.953Z,3.19
2023-05-18T14:40:07.036Z,3.06
2023-05-18T14:42:46.354Z,2.79
2023-05-18T14:45:25.726Z,2.87
2023-05-18T14:48:06.304Z,3.06
2023-05-18T14:50:45.809Z,2.96
2023-05-18T14:53:31.483Z,2.89
2023-05-18T14:56:11.075Z,2.95
2023-05-18T14:58:50.377Z,2.81
2023-05-18T15:01:29.817Z,2.94
2023-05-18T15:04:09.251Z,2.97
2023-05-18T15:06:48.830Z,2.90
2023-05-18T15:09:33.200Z,3.19
2023-05-18T15:12:13.327Z,3.00
2023-05-18T15:14:52.713Z,3.00
2023-05-18T15:17:32.114Z,3.07
2023-05-18T15:20:12.385Z,3.12
2023-05-18T15:22:52.044Z,2.96
2023-05-18T15:25:36.680Z,3.17
2023-05-18T15:28:16.607Z,2.66
2023-05-18T15:30:55.956Z,2.67
2023-05-18T15:33:37.213Z,2.99
2023-05-18T15:36:17.267Z,3.24
2023-05-18T15:38:56.594Z,3.10
2023-05-18T15:41:41.230Z,2.81
2023-05-18T15:44:20.565Z,2.82
2023-05-18T15:46:59.886Z,3.04
2023-05-18T15:49:39.188Z,3.15
2023-05-18T15:52:18.641Z,2.90
2023-05-18T15:54:58.005Z,3.05
2023-05-18T15:57:42.428Z,3.03
2023-05-18T16:00:23.430Z,3.20
2023-05-18T16:03:02.977Z,3.14
2023-05-18T16:05:42.418Z,3.09
2023-05-18T16:11:08.186Z,3.11
2023-05-18T16:13:57.167Z,3.27
2023-05-18T16:19:35.097Z,2.96
2023-05-18T16:22:14.404Z,3.03
2023-05-18T16:24:54.697Z,3.00
2023-05-18T16:27:34.008Z,3.13
2023-05-18T16:30:19.373Z,3.29
2023-05-18T16:32:58.727Z,2.97
2023-05-18T16:35:38.120Z,2.88
2023-05-18T16:38:17.987Z,2.93
2023-05-18T16:40:57.332Z,2.87
2023-05-18T16:43:36.836Z,2.93
2023-05-18T16:46:21.288Z,2.96
2023-05-18T16:49:00.691Z,2.87
2023-05-18T16:51:40.085Z,2.94
2023-05-18T16:54:19.434Z,2.67
2023-05-18T16:56:58.996Z,2.64
2023-05-18T16:59:39.189Z,2.79
2023-05-18T17:02:25.519Z,2.77
2023-05-18T17:05:04.988Z,2.98
2023-05-18T17:07:45.088Z,2.76
2023-05-18T17:10:24.736Z,2.85
2023-05-18T17:13:04.126Z,2.76
2023-05-18T17:15:43.428Z,2.81
2023-05-18T17:18:27.848Z,3.21
2023-05-18T17:21:07.308Z,2.75
2023-05-18T17:23:46.958Z,2.65
2023-05-18T17:26:26.635Z,2.58
2023-05-18T17:29:05.936Z,2.81
2023-05-18T17:31:46.671Z,2.45
2023-05-18T17:34:31.820Z,2.67
2023-05-18T17:37:11.185Z,2.90
2023-05-18T17:39:50.506Z,2.64
2023-05-18T17:42:29.909Z,2.68
2023-05-18T17:45:09.202Z,2.67
2023-05-18T17:47:48.505Z,2.92
2023-05-18T17:50:33.218Z,2.69
2023-05-18T17:53:12.775Z,2.78
2023-05-18T17:55:52.310Z,2.75
2023-05-18T17:58:31.731Z,2.78
2023-05-18T18:01:11.705Z,2.54
2023-05-18T18:03:51.062Z,2.64
2023-05-18T18:06:36.905Z,2.69
2023-05-18T18:09:16.327Z,2.79
2023-05-18T18:11:58.252Z,2.77
2023-05-18T18:14:37.597Z,2.68
2023-05-18T18:17:16.945Z,2.68
2023-05-18T18:19:56.389Z,2.66
2023-05-18T18:22:40.816Z,2.73
2023-05-18T18:25:20.109Z,2.88
2023-05-18T18:27:59.457Z,2.72
2023-05-18T18:30:38.852Z,2.70
2023-05-18T18:33:18.243Z,2.57
2023-05-18T18:35:57.690Z,2.67
2023-05-18T18:38:42.199Z,2.69
2023-05-18T18:41:22.518Z,2.59
2023-05-18T18:44:01.816Z,2.69
2023-05-18T18:46:41.383Z,2.99
2023-05-18T18:49:20.776Z,2.98
2023-05-18T18:52:00.205Z,2.87
2023-05-18T18:54:44.762Z,2.70
2023-05-18T18:57:24.069Z,2.85
2023-05-18T19:00:04.208Z,2.69
2023-05-18T19:02:43.622Z,2.90
2023-05-18T19:05:25.459Z,2.71
2023-05-18T19:08:04.958Z,2.74
2023-05-18T19:10:49.341Z,2.89
2023-05-18T19:13:28.676Z,2.84
2023-05-18T19:16:08.104Z,3.00
2023-05-18T19:18:48.142Z,2.94
2023-05-18T19:21:27.464Z,3.23
2023-05-18T19:24:08.417Z,3.01
2023-05-18T19:26:52.865Z,3.24
2023-05-18T19:29:32.313Z,3.09
2023-05-18T19:32:13.087Z,2.94
2023-05-18T19:34:53.825Z,2.90
2023-05-18T19:37:33.207Z,2.89
2023-05-18T19:40:13.634Z,2.82
2023-05-18T19:43:00.754Z,2.97
2023-05-18T19:45:42.213Z,2.99
2023-05-18T19:48:21.582Z,2.97
2023-05-18T19:51:00.894Z,2.84
2023-05-18T19:53:40.237Z,3.07
2023-05-18T19:56:19.546Z,3.30
2023-05-18T19:59:04.662Z,3.22
2023-05-18T20:01:44.219Z,3.17
2023-05-18T20:04:25.242Z,2.89
2023-05-18T20:07:04.732Z,2.78
2023-05-18T20:09:44.047Z,2.84
2023-05-18T20:12:23.402Z,2.86
2023-05-18T20:15:08.452Z,2.81
2023-05-18T20:17:47.920Z,2.86
2023-05-18T20:20:31.569Z,2.87
2023-05-18T20:23:12.367Z,2.88
2023-05-18T20:25:52.390Z,3.03
2023-05-18T20:28:33.056Z,3.15
2023-05-18T20:31:17.487Z,3.11
2023-05-18T20:33:58.993Z,3.30
2023-05-18T20:36:38.323Z,3.21
2023-05-18T20:39:17.689Z,3.01
2023-05-18T20:41:58.860Z,2.82
2023-05-18T20:44:39.173Z,3.03
2023-05-18T20:47:24.240Z,3.06
2023-05-18T20:50:03.511Z,3.62
2023-05-18T20:52:43.148Z,4.35
2023-05-18T20:55:22.522Z,3.97
2023-05-18T20:58:03.824Z,3.60
2023-05-18T21:00:43.580Z,3.19
2023-05-18T21:03:28.687Z,3.36
2023-05-18T21:06:08.257Z,3.44
2023-05-18T21:08:48.333Z,3.49
2023-05-18T21:11:27.846Z,3.38
2023-05-18T21:14:07.140Z,3.63
2023-05-18T21:16:46.904Z,3.74
2023-05-18T21:19:31.381Z,3.68
2023-05-18T21:22:10.978Z,3.71
2023-05-18T21:24:50.366Z,3.68
2023-05-18T21:27:29.815Z,3.69
2023-05-18T21:30:09.158Z,3.70
2023-05-18T21:32:49.369Z,3.32
2023-05-18T21:35:34.157Z,3.32
2023-05-18T21:38:13.471Z,3.24
2023-05-18T21:40:53.954Z,3.22
2023-05-18T21:43:33.445Z,3.30
2023-05-18T21:46:12.798Z,3.09
2023-05-18T21:48:52.322Z,3.40
2023-05-18T21:51:37.721Z,3.23
2023-05-18T21:54:17.067Z,3.03
2023-05-18T21:56:56.434Z,3.36
2023-05-18T21:59:35.712Z,3.10
2023-05-18T22:02:15.033Z,3.15
2023-05-18T22:04:54.365Z,3.24
2023-05-18T22:07:38.805Z,3.18
2023-05-18T22:10:19.032Z,3.32
2023-05-18T22:12:58.598Z,3.36
2023-05-18T22:15:38.527Z,3.27
2023-05-18T22:18:18.619Z,3.36
2023-05-18T22:20:58.684Z,3.74
2023-05-18T22:23:43.535Z,3.38
2023-05-18T22:26:22.868Z,3.44
2023-05-18T22:29:02.312Z,3.59
2023-05-18T22:31:41.632Z,3.15
2023-05-18T22:34:20.999Z,3.33
2023-05-18T22:37:03.912Z,3.00
2023-05-18T22:39:48.247Z,3.16
2023-05-18T22:42:28.065Z,3.56
2023-05-18T22:45:07.330Z,3.28
2023-05-18T22:47:46.798Z,3.46
2023-05-18T22:50:26.374Z,3.43
2023-05-18T22:53:06.186Z,3.50
2023-05-18T22:55:50.677Z,3.40
2023-05-18T22:58:30.137Z,3.71
2023-05-18T23:01:09.691Z,3.63
2023-05-18T23:03:49.109Z,3.33
2023-05-18T23:06:28.542Z,3.28
2023-05-18T23:09:07.833Z,3.35
2023-05-18T23:11:53.667Z,3.44
2023-05-18T23:14:34.945Z,3.18
2023-05-18T23:17:14.711Z,3.10
2023-05-18T23:19:55.022Z,3.01
2023-05-18T23:22:34.803Z,3.33
2023-05-18T23:25:14.864Z,3.21
2023-05-18T23:27:59.248Z,3.48
2023-05-18T23:30:38.539Z,3.28
2023-05-18T23:33:18.525Z,3.24
2023-05-18T23:35:59.031Z,2.95
2023-05-18T23:38:42.175Z,3.13
2023-05-18T23:41:23.482Z,3.43
2023-05-18T23:44:08.555Z,3.48
2023-05-18T23:46:48.650Z,3.51
2023-05-18T23:49:28.589Z,3.18
2023-05-18T23:52:09.360Z,3.25
2023-05-18T23:54:53.943Z,3.13
2023-05-18T23:57:34.304Z,3.06
